sensor_id;sensor_type;location;lat;lon;timestamp;pressure;altitude;pressure_sealevel;temperature;humidity
25610;BME280;13479;49.044;8.716;2023-02-28T05:00:39;99552.38;;;-0.98;61.91
25610;BME280;13479;49.044;8.716;2023-02-28T05:03:04;99553.38;;;-1.02;62.01
25610;BME280;13479;49.044;8.716;2023-02-28T05:05:29;99562.69;;;-0.95;61.90
25610;BME280;13479;49.044;8.716;2023-02-28T05:07:55;99550.63;;;-0.97;62.08
25610;BME280;13479;49.044;8.716;2023-02-28T05:10:22;99569.34;;;-0.84;61.38
25610;BME280;13479;49.044;8.716;2023-02-28T05:12:47;99608.28;;;-0.78;61.40
25610;BME280;13479;49.044;8.716;2023-02-28T05:17:38;99637.50;;;-0.67;60.86
25610;BME280;13479;49.044;8.716;2023-02-28T05:20:04;99673.81;;;-0.60;60.55
25610;BME280;13479;49.044;8.716;2023-02-28T05:22:30;99685.13;;;-0.60;60.66
25610;BME280;13479;49.044;8.716;2023-02-28T05:24:55;99687.94;;;-0.68;61.05
25610;BME280;13479;49.044;8.716;2023-02-28T05:27:20;99685.25;;;-0.65;60.99
25610;BME280;13479;49.044;8.716;2023-02-28T05:29:45;99676.66;;;-0.68;61.16
25610;BME280;13479;49.044;8.716;2023-02-28T05:32:11;99656.84;;;-0.74;61.74
25610;BME280;13479;49.044;8.716;2023-02-28T05:34:38;99634.16;;;-0.72;61.74
25610;BME280;13479;49.044;8.716;2023-02-28T05:37:05;99606.56;;;-0.79;61.96
25610;BME280;13479;49.044;8.716;2023-02-28T05:39:30;99577.00;;;-0.78;62.23
25610;BME280;13479;49.044;8.716;2023-02-28T05:41:55;99553.38;;;-0.73;62.28
25610;BME280;13479;49.044;8.716;2023-02-28T05:44:21;99538.88;;;-0.82;62.61
25610;BME280;13479;49.044;8.716;2023-02-28T05:46:46;99529.97;;;-0.75;62.69
25610;BME280;13479;49.044;8.716;2023-02-28T05:49:11;99527.31;;;-0.73;62.72
25610;BME280;13479;49.044;8.716;2023-02-28T05:51:36;99512.50;;;-0.73;63.04
25610;BME280;13479;49.044;8.716;2023-02-28T05:54:05;99534.81;;;-0.63;62.43
25610;BME280;13479;49.044;8.716;2023-02-28T05:56:31;99571.94;;;-0.56;62.25
25610;BME280;13479;49.044;8.716;2023-02-28T05:58:56;99594.50;;;-0.53;61.76
25610;BME280;13479;49.044;8.716;2023-02-28T06:01:32;99612.84;;;-0.56;61.81
25610;BME280;13479;49.044;8.716;2023-02-28T06:03:59;99592.97;;;-0.60;62.30
25610;BME280;13479;49.044;8.716;2023-02-28T06:06:25;99619.81;;;-0.57;61.50
25610;BME280;13479;49.044;8.716;2023-02-28T06:08:50;99653.38;;;-0.46;61.28
25610;BME280;13479;49.044;8.716;2023-02-28T06:11:15;99675.13;;;-0.45;61.58
25610;BME280;13479;49.044;8.716;2023-02-28T06:13:40;99686.50;;;-0.48;61.01
25610;BME280;13479;49.044;8.716;2023-02-28T06:16:08;99718.44;;;-0.40;60.33
25610;BME280;13479;49.044;8.716;2023-02-28T06:18:34;99734.03;;;-0.38;60.69
25610;BME280;13479;49.044;8.716;2023-02-28T06:20:59;99745.31;;;-0.38;60.02
25610;BME280;13479;49.044;8.716;2023-02-28T06:23:24;99765.97;;;-0.30;59.96
25610;BME280;13479;49.044;8.716;2023-02-28T06:25:50;99772.22;;;-0.36;60.35
25610;BME280;13479;49.044;8.716;2023-02-28T06:28:16;99758.41;;;-0.39;60.70
25610;BME280;13479;49.044;8.716;2023-02-28T06:30:41;99749.56;;;-0.34;60.84
25610;BME280;13479;49.044;8.716;2023-02-28T06:33:06;99782.13;;;-0.17;60.05
25610;BME280;13479;49.044;8.716;2023-02-28T06:35:31;99814.44;;;-0.21;59.75
25610;BME280;13479;49.044;8.716;2023-02-28T06:37:57;99836.00;;;-0.14;59.51
25610;BME280;13479;49.044;8.716;2023-02-28T06:40:22;99855.25;;;-0.19;59.72
25610;BME280;13479;49.044;8.716;2023-02-28T06:42:47;99855.31;;;-0.20;59.74
25610;BME280;13479;49.044;8.716;2023-02-28T06:45:12;99860.53;;;-0.20;59.64
25610;BME280;13479;49.044;8.716;2023-02-28T06:47:40;99891.66;;;-0.14;59.06
25610;BME280;13479;49.044;8.716;2023-02-28T06:50:06;99891.66;;;-0.14;58.89
25610;BME280;13479;49.044;8.716;2023-02-28T06:52:32;99893.38;;;-0.13;59.30
25610;BME280;13479;49.044;8.716;2023-02-28T06:54:57;99895.97;;;-0.13;59.11
25610;BME280;13479;49.044;8.716;2023-02-28T06:57:29;99895.03;;;-0.10;58.89
25610;BME280;13479;49.044;8.716;2023-02-28T06:59:57;99896.84;;;-0.12;59.35
25610;BME280;13479;49.044;8.716;2023-02-28T07:02:23;99902.88;;;-0.10;58.79
25610;BME280;13479;49.044;8.716;2023-02-28T07:04:48;99903.88;;;-0.16;58.98
25610;BME280;13479;49.044;8.716;2023-02-28T07:07:14;99888.13;;;-0.11;58.95
25610;BME280;13479;49.044;8.716;2023-02-28T07:09:39;99889.09;;;-0.16;59.13
25610;BME280;13479;49.044;8.716;2023-02-28T07:12:04;99884.84;;;-0.18;59.22
25610;BME280;13479;49.044;8.716;2023-02-28T07:14:29;99893.25;;;-0.08;58.66
25610;BME280;13479;49.044;8.716;2023-02-28T07:16:55;99894.28;;;-0.14;59.14
25610;BME280;13479;49.044;8.716;2023-02-28T07:19:20;99879.16;;;-0.03;58.89
25610;BME280;13479;49.044;8.716;2023-02-28T07:21:45;99903.56;;;-0.04;58.67
25610;BME280;13479;49.044;8.716;2023-02-28T07:24:11;99901.06;;;-0.07;58.74
25610;BME280;13479;49.044;8.716;2023-02-28T07:26:36;99898.44;;;-0.07;58.68
25610;BME280;13479;49.044;8.716;2023-02-28T07:29:01;99921.88;;;-0.05;58.56
25610;BME280;13479;49.044;8.716;2023-02-28T07:31:27;99920.22;;;-0.08;58.58
25610;BME280;13479;49.044;8.716;2023-02-28T07:33:52;99903.66;;;-0.07;58.80
25610;BME280;13479;49.044;8.716;2023-02-28T07:36:19;99915.63;;;0.01;58.83
25610;BME280;13479;49.044;8.716;2023-02-28T07:38:46;99911.94;;;0.08;58.38
25610;BME280;13479;49.044;8.716;2023-02-28T07:41:14;99916.25;;;0.09;58.37
25610;BME280;13479;49.044;8.716;2023-02-28T07:43:39;99930.06;;;0.14;58.19
25610;BME280;13479;49.044;8.716;2023-02-28T07:46:09;99944.00;;;0.13;58.09
25610;BME280;13479;49.044;8.716;2023-02-28T07:48:35;99932.56;;;0.17;58.34
25610;BME280;13479;49.044;8.716;2023-02-28T07:51:00;99941.22;;;0.19;57.93
25610;BME280;13479;49.044;8.716;2023-02-28T07:53:27;99935.09;;;0.20;58.03
25610;BME280;13479;49.044;8.716;2023-02-28T07:55:57;99932.41;;;0.23;57.89
25610;BME280;13479;49.044;8.716;2023-02-28T07:58:23;99930.50;;;0.28;57.93
25610;BME280;13479;49.044;8.716;2023-02-28T08:00:48;99938.09;;;0.36;57.46
25610;BME280;13479;49.044;8.716;2023-02-28T08:03:18;99947.53;;;0.42;57.33
25610;BME280;13479;49.044;8.716;2023-02-28T08:05:44;99943.84;;;0.49;57.65
25610;BME280;13479;49.044;8.716;2023-02-28T08:08:09;99954.03;;;0.58;56.65
25610;BME280;13479;49.044;8.716;2023-02-28T08:10:35;99965.28;;;0.60;56.63
25610;BME280;13479;49.044;8.716;2023-02-28T08:13:00;99954.03;;;0.57;56.86
25610;BME280;13479;49.044;8.716;2023-02-28T08:15:25;99963.59;;;0.58;56.49
25610;BME280;13479;49.044;8.716;2023-02-28T08:17:51;99955.13;;;0.50;56.83
25610;BME280;13479;49.044;8.716;2023-02-28T08:20:16;99932.34;;;0.55;56.74
25610;BME280;13479;49.044;8.716;2023-02-28T08:22:41;99931.19;;;0.64;56.59
25610;BME280;13479;49.044;8.716;2023-02-28T08:25:07;99962.84;;;0.84;55.71
25610;BME280;13479;49.044;8.716;2023-02-28T08:27:33;99974.72;;;0.95;55.42
25610;BME280;13479;49.044;8.716;2023-02-28T08:29:58;99983.03;;;1.07;54.91
25610;BME280;13479;49.044;8.716;2023-02-28T08:32:23;99983.59;;;1.17;55.14
25610;BME280;13479;49.044;8.716;2023-02-28T08:34:49;99981.28;;;1.35;54.70
25610;BME280;13479;49.044;8.716;2023-02-28T08:37:15;99979.22;;;1.45;54.56
25610;BME280;13479;49.044;8.716;2023-02-28T08:39:40;99977.69;;;1.64;53.54
25610;BME280;13479;49.044;8.716;2023-02-28T08:42:05;99990.56;;;1.70;53.15
25610;BME280;13479;49.044;8.716;2023-02-28T08:44:30;99990.63;;;1.69;53.11
25610;BME280;13479;49.044;8.716;2023-02-28T08:46:56;99968.97;;;1.64;53.06
25610;BME280;13479;49.044;8.716;2023-02-28T08:49:21;99982.75;;;1.69;52.84
25610;BME280;13479;49.044;8.716;2023-02-28T08:51:46;99967.53;;;1.80;52.75
25610;BME280;13479;49.044;8.716;2023-02-28T08:54:11;99968.78;;;2.19;52.19
25610;BME280;13479;49.044;8.716;2023-02-28T08:56:38;99988.22;;;2.85;50.26
25610;BME280;13479;49.044;8.716;2023-02-28T08:59:03;99981.50;;;3.22;49.73
25610;BME280;13479;49.044;8.716;2023-02-28T09:01:29;99983.25;;;3.44;48.46
25610;BME280;13479;49.044;8.716;2023-02-28T09:03:56;99993.44;;;4.53;46.04
25610;BME280;13479;49.044;8.716;2023-02-28T09:06:24;99990.31;;;5.92;44.31
25610;BME280;13479;49.044;8.716;2023-02-28T09:08:51;99992.94;;;7.08;41.22
25610;BME280;13479;49.044;8.716;2023-02-28T09:11:16;99999.22;;;7.38;40.08
25610;BME280;13479;49.044;8.716;2023-02-28T09:13:43;100000.56;;;8.21;38.76
25610;BME280;13479;49.044;8.716;2023-02-28T09:16:11;100004.78;;;9.37;37.24
25610;BME280;13479;49.044;8.716;2023-02-28T09:18:37;99991.97;;;10.75;35.23
25610;BME280;13479;49.044;8.716;2023-02-28T09:21:07;100009.78;;;10.08;34.02
25610;BME280;13479;49.044;8.716;2023-02-28T09:23:33;100011.97;;;10.42;33.56
25610;BME280;13479;49.044;8.716;2023-02-28T09:25:59;100002.94;;;11.07;33.04
25610;BME280;13479;49.044;8.716;2023-02-28T09:28:24;100000.69;;;11.38;32.27
25610;BME280;13479;49.044;8.716;2023-02-28T09:30:52;99998.09;;;10.75;32.92
25610;BME280;13479;49.044;8.716;2023-02-28T09:33:18;100003.19;;;10.41;33.28
25610;BME280;13479;49.044;8.716;2023-02-28T09:35:49;99994.47;;;9.05;34.92
25610;BME280;13479;49.044;8.716;2023-02-28T09:38:14;99983.28;;;7.70;36.77
25610;BME280;13479;49.044;8.716;2023-02-28T09:40:58;99957.16;;;6.39;39.00
25610;BME280;13479;49.044;8.716;2023-02-28T09:43:27;99952.72;;;5.53;40.46
25610;BME280;13479;49.044;8.716;2023-02-28T09:46:02;99923.06;;;4.58;43.20
25610;BME280;13479;49.044;8.716;2023-02-28T09:48:34;99911.13;;;4.13;44.77
25610;BME280;13479;49.044;8.716;2023-02-28T09:53:48;99878.25;;;3.83;45.23
25610;BME280;13479;49.044;8.716;2023-02-28T09:56:20;99857.38;;;3.61;46.54
25610;BME280;13479;49.044;8.716;2023-02-28T09:58:56;99835.97;;;3.50;46.78
25610;BME280;13479;49.044;8.716;2023-02-28T10:07:17;99799.84;;;3.76;46.51
25610;BME280;13479;49.044;8.716;2023-02-28T10:09:47;99814.50;;;3.80;46.17
25610;BME280;13479;49.044;8.716;2023-02-28T10:12:16;99790.59;;;3.67;46.50
25610;BME280;13479;49.044;8.716;2023-02-28T10:14:45;99775.53;;;3.70;46.98
25610;BME280;13479;49.044;8.716;2023-02-28T10:17:15;99776.03;;;3.79;47.14
25610;BME280;13479;49.044;8.716;2023-02-28T10:20:07;99779.56;;;3.78;46.36
25610;BME280;13479;49.044;8.716;2023-02-28T10:22:44;99763.97;;;3.75;46.14
25610;BME280;13479;49.044;8.716;2023-02-28T10:25:26;99763.41;;;3.87;46.67
25610;BME280;13479;49.044;8.716;2023-02-28T10:27:53;99766.53;;;3.95;45.87
25610;BME280;13479;49.044;8.716;2023-02-28T10:30:19;99777.59;;;4.02;46.13
25610;BME280;13479;49.044;8.716;2023-02-28T10:32:50;99804.00;;;3.99;45.19
25610;BME280;13479;49.044;8.716;2023-02-28T10:35:21;99813.81;;;3.95;45.44
25610;BME280;13479;49.044;8.716;2023-02-28T10:37:49;99808.13;;;4.05;45.22
25610;BME280;13479;49.044;8.716;2023-02-28T10:43:04;99837.41;;;4.16;44.47
25610;BME280;13479;49.044;8.716;2023-02-28T10:45:31;99851.59;;;4.12;44.62
25610;BME280;13479;49.044;8.716;2023-02-28T11:01:14;99933.38;;;5.54;41.47
25610;BME280;13479;49.044;8.716;2023-02-28T11:03:40;99924.31;;;5.42;42.04
25610;BME280;13479;49.044;8.716;2023-02-28T11:06:08;99932.75;;;5.31;41.88
25610;BME280;13479;49.044;8.716;2023-02-28T11:08:45;99939.44;;;5.38;42.01
25610;BME280;13479;49.044;8.716;2023-02-28T11:11:10;99942.28;;;5.34;41.91
25610;BME280;13479;49.044;8.716;2023-02-28T11:13:36;99945.91;;;4.77;42.39
25610;BME280;13479;49.044;8.716;2023-02-28T11:16:08;99936.38;;;4.36;42.93
25610;BME280;13479;49.044;8.716;2023-02-28T11:18:52;99889.81;;;4.19;43.57
25610;BME280;13479;49.044;8.716;2023-02-28T11:21:27;99857.19;;;4.23;43.81
25610;BME280;13479;49.044;8.716;2023-02-28T11:24:00;99855.56;;;4.21;43.51
25610;BME280;13479;49.044;8.716;2023-02-28T11:26:44;99825.09;;;4.36;44.25
25610;BME280;13479;49.044;8.716;2023-02-28T11:29:15;99815.81;;;4.46;44.37
25610;BME280;13479;49.044;8.716;2023-02-28T11:31:42;99816.97;;;4.77;43.52
25610;BME280;13479;49.044;8.716;2023-02-28T11:34:24;99837.59;;;5.21;42.23
25610;BME280;13479;49.044;8.716;2023-02-28T11:36:51;99872.53;;;5.59;41.86
25610;BME280;13479;49.044;8.716;2023-02-28T11:39:18;99893.47;;;5.79;41.43
25610;BME280;13479;49.044;8.716;2023-02-28T11:41:57;99929.28;;;5.66;41.36
25610;BME280;13479;49.044;8.716;2023-02-28T11:47:17;99936.06;;;5.87;41.28
25610;BME280;13479;49.044;8.716;2023-02-28T11:55:35;99939.81;;;5.66;40.93
25610;BME280;13479;49.044;8.716;2023-02-28T12:01:31;99935.31;;;5.68;41.30
25610;BME280;13479;49.044;8.716;2023-02-28T12:04:24;99936.50;;;5.62;41.31
25610;BME280;13479;49.044;8.716;2023-02-28T12:07:03;99915.91;;;5.69;41.07
25610;BME280;13479;49.044;8.716;2023-02-28T12:09:49;99940.88;;;5.62;41.05
25610;BME280;13479;49.044;8.716;2023-02-28T12:15:24;99939.56;;;5.70;40.92
25610;BME280;13479;49.044;8.716;2023-02-28T12:18:09;99922.13;;;5.50;40.96
25610;BME280;13479;49.044;8.716;2023-02-28T12:23:54;99895.91;;;5.82;41.09
25610;BME280;13479;49.044;8.716;2023-02-28T12:26:32;99907.31;;;6.00;41.05
25610;BME280;13479;49.044;8.716;2023-02-28T12:29:19;99916.59;;;6.08;40.36
25610;BME280;13479;49.044;8.716;2023-02-28T12:32:01;99914.59;;;6.29;40.37
25610;BME280;13479;49.044;8.716;2023-02-28T12:34:33;99915.53;;;6.28;40.10
25610;BME280;13479;49.044;8.716;2023-02-28T12:37:06;99906.84;;;6.26;40.71
25610;BME280;13479;49.044;8.716;2023-02-28T12:39:36;99897.94;;;6.28;40.52
25610;BME280;13479;49.044;8.716;2023-02-28T12:42:10;99899.81;;;6.42;40.18
25610;BME280;13479;49.044;8.716;2023-02-28T12:44:52;99914.00;;;6.24;40.41
25610;BME280;13479;49.044;8.716;2023-02-28T12:47:19;99896.72;;;6.18;40.27
25610;BME280;13479;49.044;8.716;2023-02-28T12:52:11;99883.78;;;6.13;40.65
25610;BME280;13479;49.044;8.716;2023-02-28T12:54:54;99889.91;;;6.30;40.37
25610;BME280;13479;49.044;8.716;2023-02-28T12:57:33;99894.84;;;6.36;39.82
25610;BME280;13479;49.044;8.716;2023-02-28T13:00:04;99893.84;;;6.23;40.57
25610;BME280;13479;49.044;8.716;2023-02-28T13:05:38;99872.75;;;6.23;41.26
25610;BME280;13479;49.044;8.716;2023-02-28T13:08:37;99871.88;;;6.38;39.52
25610;BME280;13479;49.044;8.716;2023-02-28T13:11:25;99879.53;;;6.27;40.28
25610;BME280;13479;49.044;8.716;2023-02-28T13:14:03;99880.03;;;6.17;39.84
25610;BME280;13479;49.044;8.716;2023-02-28T13:16:51;99883.19;;;6.08;40.72
25610;BME280;13479;49.044;8.716;2023-02-28T13:19:20;99869.06;;;6.09;40.72
25610;BME280;13479;49.044;8.716;2023-02-28T13:21:47;99856.66;;;6.27;40.47
25610;BME280;13479;49.044;8.716;2023-02-28T13:29:40;99864.72;;;6.24;40.52
25610;BME280;13479;49.044;8.716;2023-02-28T13:37:35;99813.78;;;6.24;41.34
25610;BME280;13479;49.044;8.716;2023-02-28T13:40:30;99804.06;;;6.40;41.21
25610;BME280;13479;49.044;8.716;2023-02-28T13:43:01;99825.31;;;6.53;40.52
25610;BME280;13479;49.044;8.716;2023-02-28T13:45:28;99841.94;;;6.39;40.80
25610;BME280;13479;49.044;8.716;2023-02-28T13:48:15;99830.63;;;6.37;40.98
25610;BME280;13479;49.044;8.716;2023-02-28T13:50:42;99837.59;;;6.38;40.69
25610;BME280;13479;49.044;8.716;2023-02-28T13:56:03;99837.44;;;6.41;40.41
25610;BME280;13479;49.044;8.716;2023-02-28T13:58:52;99846.78;;;6.31;41.26
25610;BME280;13479;49.044;8.716;2023-02-28T14:01:36;99836.81;;;6.04;41.10
25610;BME280;13479;49.044;8.716;2023-02-28T14:04:42;99828.91;;;6.04;41.51
25610;BME280;13479;49.044;8.716;2023-02-28T14:07:18;99811.38;;;6.03;41.55
25610;BME280;13479;49.044;8.716;2023-02-28T14:09:51;99804.34;;;6.03;41.67
25610;BME280;13479;49.044;8.716;2023-02-28T14:17:59;99795.78;;;5.82;41.33
25610;BME280;13479;49.044;8.716;2023-02-28T14:20:30;99787.28;;;5.77;42.04
25610;BME280;13479;49.044;8.716;2023-02-28T14:25:43;99774.69;;;5.82;41.44
25610;BME280;13479;49.044;8.716;2023-02-28T14:28:20;99774.38;;;5.88;41.31
25610;BME280;13479;49.044;8.716;2023-02-28T14:31:13;99766.22;;;5.93;41.52
25610;BME280;13479;49.044;8.716;2023-02-28T14:33:48;99759.25;;;6.08;41.74
25610;BME280;13479;49.044;8.716;2023-02-28T14:36:26;99750.78;;;6.19;42.44
25610;BME280;13479;49.044;8.716;2023-02-28T14:38:58;99768.44;;;6.33;41.39
25610;BME280;13479;49.044;8.716;2023-02-28T14:41:35;99803.16;;;6.09;41.42
25610;BME280;13479;49.044;8.716;2023-02-28T14:44:11;99800.22;;;5.98;41.26
25610;BME280;13479;49.044;8.716;2023-02-28T14:46:39;99800.72;;;5.88;41.99
25610;BME280;13479;49.044;8.716;2023-02-28T14:49:06;99797.63;;;5.80;41.75
25610;BME280;13479;49.044;8.716;2023-02-28T14:51:34;99798.13;;;5.71;41.79
25610;BME280;13479;49.044;8.716;2023-02-28T14:54:01;99779.00;;;5.67;42.00
25610;BME280;13479;49.044;8.716;2023-02-28T14:56:37;99769.91;;;5.57;42.54
25610;BME280;13479;49.044;8.716;2023-02-28T14:59:03;99770.06;;;5.54;42.77
25610;BME280;13479;49.044;8.716;2023-02-28T15:01:29;99762.41;;;5.49;42.64
25610;BME280;13479;49.044;8.716;2023-02-28T15:04:12;99744.13;;;5.46;43.09
25610;BME280;13479;49.044;8.716;2023-02-28T15:06:43;99731.81;;;5.47;42.61
25610;BME280;13479;49.044;8.716;2023-02-28T15:09:16;99727.91;;;5.54;42.60
25610;BME280;13479;49.044;8.716;2023-02-28T15:11:45;99741.34;;;5.49;42.59
25610;BME280;13479;49.044;8.716;2023-02-28T15:14:18;99730.03;;;5.47;42.83
25610;BME280;13479;49.044;8.716;2023-02-28T15:16:45;99725.19;;;5.39;42.74
25610;BME280;13479;49.044;8.716;2023-02-28T15:19:39;99738.56;;;5.35;42.68
25610;BME280;13479;49.044;8.716;2023-02-28T15:22:15;99722.34;;;5.26;42.73
25610;BME280;13479;49.044;8.716;2023-02-28T15:24:47;99705.63;;;5.28;43.67
25610;BME280;13479;49.044;8.716;2023-02-28T15:27:18;99721.69;;;5.39;42.32
25610;BME280;13479;49.044;8.716;2023-02-28T15:29:48;99722.78;;;5.35;43.53
25610;BME280;13479;49.044;8.716;2023-02-28T15:32:27;99722.78;;;5.35;42.98
25610;BME280;13479;49.044;8.716;2023-02-28T15:34:53;99725.66;;;5.30;42.97
25610;BME280;13479;49.044;8.716;2023-02-28T15:42:36;99709.19;;;5.26;43.67
25610;BME280;13479;49.044;8.716;2023-02-28T15:45:02;99704.09;;;5.23;43.39
25610;BME280;13479;49.044;8.716;2023-02-28T15:47:29;99713.75;;;5.23;43.64
25610;BME280;13479;49.044;8.716;2023-02-28T15:49:56;99711.53;;;5.15;43.22
25610;BME280;13479;49.044;8.716;2023-02-28T15:52:37;99708.31;;;5.10;43.06
25610;BME280;13479;49.044;8.716;2023-02-28T15:55:24;99696.84;;;4.93;43.54
25610;BME280;13479;49.044;8.716;2023-02-28T15:57:54;99684.31;;;4.99;44.24
25610;BME280;13479;49.044;8.716;2023-02-28T16:00:25;99682.78;;;4.94;43.83
25610;BME280;13479;49.044;8.716;2023-02-28T16:02:51;99678.00;;;4.85;44.35
25610;BME280;13479;49.044;8.716;2023-02-28T16:05:30;99678.59;;;4.90;44.43
25610;BME280;13479;49.044;8.716;2023-02-28T16:07:59;99672.88;;;4.82;44.61
25610;BME280;13479;49.044;8.716;2023-02-28T16:10:26;99680.09;;;4.78;44.68
25610;BME280;13479;49.044;8.716;2023-02-28T16:12:54;99671.66;;;4.72;44.71
25610;BME280;13479;49.044;8.716;2023-02-28T16:15:21;99668.75;;;4.78;44.66
25610;BME280;13479;49.044;8.716;2023-02-28T16:17:47;99673.38;;;4.73;44.90
25610;BME280;13479;49.044;8.716;2023-02-28T16:20:14;99659.09;;;4.61;45.51
25610;BME280;13479;49.044;8.716;2023-02-28T16:22:41;99657.06;;;4.66;45.50
25610;BME280;13479;49.044;8.716;2023-02-28T16:25:12;99667.91;;;4.60;45.52
25610;BME280;13479;49.044;8.716;2023-02-28T16:27:38;99664.53;;;4.56;45.57
25610;BME280;13479;49.044;8.716;2023-02-28T16:30:05;99666.34;;;4.56;45.22
25610;BME280;13479;49.044;8.716;2023-02-28T16:32:32;99669.44;;;4.46;45.71
25610;BME280;13479;49.044;8.716;2023-02-28T16:34:59;99667.09;;;4.40;46.28
25610;BME280;13479;49.044;8.716;2023-02-28T16:37:26;99667.97;;;4.41;46.46
25610;BME280;13479;49.044;8.716;2023-02-28T16:39:52;99667.09;;;4.40;46.46
25610;BME280;13479;49.044;8.716;2023-02-28T16:42:27;99678.63;;;4.38;46.08
25610;BME280;13479;49.044;8.716;2023-02-28T16:44:53;99667.72;;;4.28;45.95
25610;BME280;13479;49.044;8.716;2023-02-28T16:47:19;99677.06;;;4.33;46.25
25610;BME280;13479;49.044;8.716;2023-02-28T16:49:45;99685.66;;;4.20;46.23
25610;BME280;13479;49.044;8.716;2023-02-28T16:52:10;99673.75;;;4.12;46.67
25610;BME280;13479;49.044;8.716;2023-02-28T16:54:37;99665.41;;;4.04;46.93
25610;BME280;13479;49.044;8.716;2023-02-28T16:57:03;99678.59;;;4.02;46.83
25610;BME280;13479;49.044;8.716;2023-02-28T16:59:29;99675.50;;;3.94;46.83
25610;BME280;13479;49.044;8.716;2023-02-28T17:01:55;99672.53;;;3.83;47.42
25610;BME280;13479;49.044;8.716;2023-02-28T17:04:23;99662.47;;;3.74;47.58
25610;BME280;13479;49.044;8.716;2023-02-28T17:06:48;99662.69;;;3.69;47.98
25610;BME280;13479;49.044;8.716;2023-02-28T17:09:17;99668.91;;;3.66;47.50
25610;BME280;13479;49.044;8.716;2023-02-28T17:11:42;99663.31;;;3.55;48.49
25610;BME280;13479;49.044;8.716;2023-02-28T17:14:08;99657.53;;;3.48;48.42
25610;BME280;13479;49.044;8.716;2023-02-28T17:16:35;99664.09;;;3.38;48.95
25610;BME280;13479;49.044;8.716;2023-02-28T17:19:04;99664.06;;;3.39;48.68
25610;BME280;13479;49.044;8.716;2023-02-28T17:21:30;99666.44;;;3.25;49.06
25610;BME280;13479;49.044;8.716;2023-02-28T17:23:56;99667.44;;;3.22;49.53
25610;BME280;13479;49.044;8.716;2023-02-28T17:26:22;99661.84;;;3.11;49.79
25610;BME280;13479;49.044;8.716;2023-02-28T17:28:50;99660.91;;;3.12;49.54
25610;BME280;13479;49.044;8.716;2023-02-28T17:31:16;99667.41;;;3.03;49.93
25610;BME280;13479;49.044;8.716;2023-02-28T17:33:41;99674.56;;;3.00;50.17
25610;BME280;13479;49.044;8.716;2023-02-28T17:36:13;99669.78;;;2.89;49.93
25610;BME280;13479;49.044;8.716;2023-02-28T17:38:39;99673.34;;;2.88;50.16
25610;BME280;13479;49.044;8.716;2023-02-28T17:41:04;99673.34;;;2.88;50.14
25610;BME280;13479;49.044;8.716;2023-02-28T17:43:29;99676.16;;;2.83;50.24
25610;BME280;13479;49.044;8.716;2023-02-28T17:45:55;99674.59;;;2.79;50.58
25610;BME280;13479;49.044;8.716;2023-02-28T17:48:20;99680.09;;;2.73;50.80
25610;BME280;13479;49.044;8.716;2023-02-28T17:50:46;99670.94;;;2.62;50.79
25610;BME280;13479;49.044;8.716;2023-02-28T17:53:11;99675.59;;;2.56;51.47
25610;BME280;13479;49.044;8.716;2023-02-28T17:55:36;99672.31;;;2.51;51.45
25610;BME280;13479;49.044;8.716;2023-02-28T17:58:02;99670.53;;;2.51;50.98
25610;BME280;13479;49.044;8.716;2023-02-28T18:00:29;99674.78;;;2.54;51.38
25610;BME280;13479;49.044;8.716;2023-02-28T18:02:54;99666.53;;;2.42;51.69
25610;BME280;13479;49.044;8.716;2023-02-28T18:05:19;99669.69;;;2.51;51.36
25610;BME280;13479;49.044;8.716;2023-02-28T18:07:45;99670.13;;;2.40;51.28
25610;BME280;13479;49.044;8.716;2023-02-28T18:10:19;99665.69;;;2.42;51.69
25610;BME280;13479;49.044;8.716;2023-02-28T18:12:49;99669.81;;;2.47;51.49
25610;BME280;13479;49.044;8.716;2023-02-28T18:15:16;99668.50;;;2.37;51.65
25610;BME280;13479;49.044;8.716;2023-02-28T18:17:42;99665.97;;;2.36;51.96
25610;BME280;13479;49.044;8.716;2023-02-28T18:20:11;99660.44;;;2.21;52.04
25610;BME280;13479;49.044;8.716;2023-02-28T18:22:37;99667.63;;;2.37;51.44
25610;BME280;13479;49.044;8.716;2023-02-28T18:25:04;99668.50;;;2.16;51.95
25610;BME280;13479;49.044;8.716;2023-02-28T18:27:29;99660.34;;;2.23;51.98
25610;BME280;13479;49.044;8.716;2023-02-28T18:29:55;99670.59;;;2.29;51.78
25610;BME280;13479;49.044;8.716;2023-02-28T18:32:20;99663.25;;;2.16;52.66
25610;BME280;13479;49.044;8.716;2023-02-28T18:34:45;99664.75;;;2.22;52.03
25610;BME280;13479;49.044;8.716;2023-02-28T18:37:11;99661.53;;;2.15;52.17
25610;BME280;13479;49.044;8.716;2023-02-28T18:39:36;99669.13;;;2.22;52.34
25610;BME280;13479;49.044;8.716;2023-02-28T18:42:02;99667.81;;;2.11;52.06
25610;BME280;13479;49.044;8.716;2023-02-28T18:44:27;99662.56;;;2.11;52.21
25610;BME280;13479;49.044;8.716;2023-02-28T18:46:52;99660.34;;;2.02;52.46
25610;BME280;13479;49.044;8.716;2023-02-28T18:49:18;99656.81;;;2.03;52.91
25610;BME280;13479;49.044;8.716;2023-02-28T18:51:43;99650.47;;;1.87;52.94
25610;BME280;13479;49.044;8.716;2023-02-28T18:54:14;99649.31;;;1.94;53.43
25610;BME280;13479;49.044;8.716;2023-02-28T18:56:40;99641.34;;;1.97;53.50
25610;BME280;13479;49.044;8.716;2023-02-28T18:59:06;99655.28;;;1.97;52.98
25610;BME280;13479;49.044;8.716;2023-02-28T19:01:31;99658.31;;;1.87;53.10
25610;BME280;13479;49.044;8.716;2023-02-28T19:03:58;99654.94;;;1.84;53.19
25610;BME280;13479;49.044;8.716;2023-02-28T19:06:27;99658.31;;;1.87;53.35
25610;BME280;13479;49.044;8.716;2023-02-28T19:08:59;99657.59;;;1.83;53.41
25610;BME280;13479;49.044;8.716;2023-02-28T19:11:25;99671.28;;;1.90;53.29
25610;BME280;13479;49.044;8.716;2023-02-28T19:13:51;99670.50;;;1.88;53.34
25610;BME280;13479;49.044;8.716;2023-02-28T19:16:19;99681.72;;;1.91;53.20
25610;BME280;13479;49.044;8.716;2023-02-28T19:18:45;99673.00;;;1.91;53.05
25610;BME280;13479;49.044;8.716;2023-02-28T19:21:13;99683.41;;;1.92;53.06
25610;BME280;13479;49.044;8.716;2023-02-28T19:23:39;99680.75;;;1.94;53.00
25610;BME280;13479;49.044;8.716;2023-02-28T19:26:09;99683.59;;;1.88;53.38
25610;BME280;13479;49.044;8.716;2023-02-28T19:28:35;99677.34;;;1.92;52.90
25610;BME280;13479;49.044;8.716;2023-02-28T19:31:00;99679.78;;;1.74;53.57
25610;BME280;13479;49.044;8.716;2023-02-28T19:33:26;99665.88;;;1.72;53.13
25610;BME280;13479;49.044;8.716;2023-02-28T19:35:51;99672.94;;;1.70;53.68